createdAt,value
2022-07-29T00:03:04.988Z,49.18
2022-07-29T00:07:07.197Z,47.52
2022-07-29T00:11:09.688Z,46.90
2022-07-29T00:15:11.835Z,47.09
2022-07-29T00:19:13.889Z,47.63
2022-07-29T00:23:16.172Z,49.27
2022-07-29T00:27:18.969Z,51.93
2022-07-29T00:31:21.024Z,53.57
2022-07-29T00:35:41.703Z,55.42
2022-07-29T00:39:43.923Z,57.74
2022-07-29T00:43:46.485Z,60.67
2022-07-29T00:47:48.695Z,61.42
2022-07-29T00:51:51.002Z,62.06
2022-07-29T00:55:55.695Z,63.69
2022-07-29T00:59:57.763Z,63.54
2022-07-29T01:03:59.810Z,63.10
2022-07-29T01:08:03.479Z,64.61
2022-07-29T01:12:06.130Z,65.07
2022-07-29T01:16:25.804Z,66.10
2022-07-29T01:21:04.681Z,66.75
2022-07-29T01:25:27.871Z,67.20
2022-07-29T01:29:38.657Z,67.36
2022-07-29T01:33:49.400Z,68.19
2022-07-29T01:37:58.584Z,68.12
2022-07-29T01:42:10.944Z,67.72
2022-07-29T01:46:18.668Z,67.17
2022-07-29T01:50:26.914Z,66.57
2022-07-29T01:54:38.372Z,66.54
2022-07-29T01:58:44.703Z,66.49
2022-07-29T02:02:48.801Z,68.62
2022-07-29T02:06:55.320Z,69.43
2022-07-29T02:10:58.995Z,69.89
2022-07-29T02:15:03.975Z,69.90
2022-07-29T02:19:09.601Z,67.60
2022-07-29T02:23:13.712Z,65.91
2022-07-29T02:27:16.367Z,65.85
2022-07-29T02:31:22.710Z,65.37
2022-07-29T02:35:25.724Z,64.37
2022-07-29T02:39:30.937Z,67.08
2022-07-29T02:43:34.763Z,68.41
2022-07-29T02:47:48.536Z,68.72
2022-07-29T02:51:55.656Z,68.91
2022-07-29T02:56:00.432Z,68.20
2022-07-29T03:00:07.550Z,70.50
2022-07-29T03:04:12.442Z,70.64
2022-07-29T03:08:16.898Z,71.70
2022-07-29T03:12:19.306Z,72.68
2022-07-29T03:16:23.068Z,73.38
2022-07-29T03:20:25.658Z,74.35
2022-07-29T03:24:35.630Z,74.89
2022-07-29T03:28:37.671Z,75.96
2022-07-29T03:32:42.451Z,77.62
2022-07-29T03:36:47.031Z,79.97
2022-07-29T03:41:01.652Z,80.92
2022-07-29T03:45:08.137Z,81.89
2022-07-29T03:49:12.254Z,84.00
2022-07-29T03:53:14.721Z,90.97
2022-07-29T03:57:17.311Z,94.05
2022-07-29T04:01:20.936Z,90.12
2022-07-29T04:05:23.010Z,90.42
2022-07-29T04:09:25.088Z,93.35
2022-07-29T04:13:27.266Z,92.76
2022-07-29T04:17:29.283Z,94.62
2022-07-29T04:21:31.334Z,95.41
2022-07-29T04:25:33.396Z,93.94
2022-07-29T04:29:35.566Z,92.16
2022-07-29T04:33:37.652Z,92.51
2022-07-29T04:37:39.669Z,93.06
2022-07-29T04:41:41.731Z,94.02
2022-07-29T04:45:45.046Z,95.80
2022-07-29T04:49:47.097Z,96.40
2022-07-29T04:53:49.141Z,98.77
2022-07-29T04:57:51.164Z,100.00
2022-07-29T05:01:53.297Z,99.92
2022-07-29T05:05:55.532Z,99.62
2022-07-29T05:09:57.900Z,100.00
2022-07-29T05:13:59.997Z,99.73
2022-07-29T05:18:02.677Z,81.80
2022-07-29T05:22:04.766Z,73.17
2022-07-29T05:26:06.766Z,66.70
2022-07-29T05:30:09.562Z,61.58
2022-07-29T05:34:11.906Z,53.77
2022-07-29T05:38:13.912Z,48.00
2022-07-29T05:42:15.928Z,44.88
2022-07-29T05:46:18.073Z,42.35
2022-07-29T05:50:20.414Z,40.18
2022-07-29T05:54:22.486Z,38.95
2022-07-29T05:58:24.483Z,37.76
2022-07-29T06:02:26.700Z,37.04
2022-07-29T06:06:28.754Z,35.47
2022-07-29T06:10:30.791Z,33.68
2022-07-29T06:14:33.567Z,34.50
2022-07-29T06:18:36.003Z,34.12
2022-07-29T06:22:38.019Z,31.92
2022-07-29T06:26:40.819Z,29.54
2022-07-29T06:30:42.902Z,30.02
2022-07-29T06:34:48.871Z,29.45
2022-07-29T06:38:52.039Z,29.12
2022-07-29T06:42:54.419Z,30.61
2022-07-29T06:46:57.037Z,28.93
2022-07-29T06:50:59.934Z,29.15
2022-07-29T06:55:01.951Z,28.64
2022-07-29T06:59:05.101Z,27.55
2022-07-29T07:03:07.113Z,27.50
2022-07-29T07:07:09.153Z,27.28
2022-07-29T07:11:11.214Z,27.07
2022-07-29T07:15:13.251Z,29.54
2022-07-29T07:19:15.413Z,34.30
2022-07-29T07:23:17.528Z,38.32
2022-07-29T07:27:19.574Z,42.15
2022-07-29T07:31:21.800Z,45.46
2022-07-29T07:35:23.903Z,46.93
2022-07-29T07:39:27.060Z,47.96
2022-07-29T07:43:29.230Z,48.81
2022-07-29T07:47:31.435Z,49.15
2022-07-29T07:51:36.295Z,50.94
2022-07-29T08:00:06.004Z,53.12
2022-07-29T08:04:14.689Z,53.23
2022-07-29T08:08:17.019Z,52.01
2022-07-29T08:12:19.041Z,51.55
2022-07-29T08:16:21.461Z,51.08
2022-07-29T08:20:23.665Z,51.61
2022-07-29T08:24:44.163Z,50.28
2022-07-29T08:28:49.545Z,49.81
2022-07-29T08:32:55.089Z,50.57
2022-07-29T08:36:58.118Z,52.14
2022-07-29T08:41:01.924Z,52.50
2022-07-29T08:45:05.843Z,49.86
2022-07-29T08:49:08.156Z,49.15
2022-07-29T08:53:15.223Z,49.51
2022-07-29T08:57:17.485Z,49.23
2022-07-29T09:01:35.787Z,47.48
2022-07-29T09:05:47.520Z,48.49
2022-07-29T09:09:50.290Z,47.33
2022-07-29T09:13:52.583Z,47.53
2022-07-29T09:17:56.289Z,47.96
2022-07-29T09:22:03.242Z,47.24
2022-07-29T09:26:07.144Z,46.96
2022-07-29T09:30:11.595Z,46.77
2022-07-29T09:34:17.427Z,47.31
2022-07-29T09:38:19.534Z,46.66
2022-07-29T09:42:33.373Z,44.28
2022-07-29T09:46:35.739Z,45.97
2022-07-29T09:54:43.029Z,46.63
2022-07-29T09:58:45.076Z,47.44
2022-07-29T10:02:48.318Z,46.88
2022-07-29T10:07:05.082Z,46.08
2022-07-29T10:11:18.798Z,45.39
2022-07-29T10:15:23.034Z,44.93
2022-07-29T10:19:25.530Z,44.51
2022-07-29T10:23:30.301Z,42.99
2022-07-29T10:27:52.046Z,44.32
2022-07-29T10:32:06.013Z,44.75
2022-07-29T10:36:36.514Z,43.63
2022-07-29T10:41:32.439Z,44.16
2022-07-29T10:45:50.227Z,44.18
2022-07-29T10:50:01.359Z,44.61
2022-07-29T10:54:06.538Z,44.37
2022-07-29T10:58:24.507Z,42.34
2022-07-29T11:02:42.150Z,42.47
2022-07-29T11:07:11.039Z,43.12
2022-07-29T11:11:32.113Z,42.83
2022-07-29T11:15:57.339Z,42.38
2022-07-29T11:20:38.257Z,41.55
2022-07-29T11:24:50.275Z,42.03
2022-07-29T11:29:15.973Z,42.54
2022-07-29T11:33:54.037Z,43.16
2022-07-29T11:38:31.647Z,42.22
2022-07-29T11:42:37.104Z,42.32
2022-07-29T11:46:54.042Z,42.43
2022-07-29T11:50:58.354Z,42.52
2022-07-29T11:55:09.985Z,41.97
2022-07-29T11:59:15.312Z,43.13
2022-07-29T12:03:33.428Z,42.03
2022-07-29T12:07:40.948Z,42.18
2022-07-29T12:11:45.040Z,42.44
2022-07-29T12:16:00.188Z,42.18
2022-07-29T12:20:05.453Z,41.20
2022-07-29T12:24:09.542Z,41.24
2022-07-29T12:28:14.379Z,41.03
2022-07-29T12:32:36.849Z,41.69
2022-07-29T12:36:39.001Z,41.62
2022-07-29T12:40:41.354Z,41.11
2022-07-29T12:44:48.116Z,41.01
2022-07-29T12:48:57.516Z,41.09
2022-07-29T12:53:11.072Z,40.67
2022-07-29T12:57:19.867Z,40.48
2022-07-29T13:01:22.334Z,40.38
2022-07-29T13:05:25.349Z,40.98
2022-07-29T13:09:38.110Z,40.67
2022-07-29T13:14:05.640Z,40.07
2022-07-29T13:18:32.118Z,39.31
2022-07-29T13:22:34.160Z,40.02
2022-07-29T13:26:40.858Z,39.76
2022-07-29T13:30:44.460Z,39.97
2022-07-29T13:34:46.931Z,41.15
2022-07-29T13:38:49.010Z,40.95
2022-07-29T13:42:51.255Z,41.76
2022-07-29T13:46:53.431Z,42.03
2022-07-29T13:50:55.512Z,43.13
2022-07-29T13:54:57.871Z,43.43
2022-07-29T13:58:59.862Z,44.96
2022-07-29T14:03:01.959Z,46.37
2022-07-29T14:07:04.551Z,47.79
2022-07-29T14:11:06.803Z,48.71
2022-07-29T14:15:09.559Z,49.75
2022-07-29T14:19:11.908Z,51.70
2022-07-29T14:23:14.370Z,57.47
2022-07-29T14:27:18.477Z,62.90
2022-07-29T14:31:20.673Z,63.82
2022-07-29T14:35:22.798Z,62.50
2022-07-29T14:39:24.877Z,62.87
2022-07-29T14:43:35.606Z,63.92
2022-07-29T14:47:38.785Z,65.23
2022-07-29T14:51:40.804Z,66.88
2022-07-29T14:55:42.936Z,68.51
2022-07-29T14:59:44.985Z,69.52
2022-07-29T15:03:47.066Z,70.35
2022-07-29T15:07:49.100Z,70.49
2022-07-29T15:11:51.154Z,68.42
2022-07-29T15:15:57.007Z,67.08
2022-07-29T15:20:01.852Z,66.65
2022-07-29T15:24:04.123Z,67.57
2022-07-29T15:28:08.020Z,67.19
2022-07-29T15:32:10.936Z,67.59
2022-07-29T15:36:25.434Z,67.31
2022-07-29T15:40:37.100Z,67.41
2022-07-29T15:44:39.197Z,69.49
2022-07-29T15:48:41.343Z,67.87
2022-07-29T15:52:43.488Z,71.59
2022-07-29T15:56:45.506Z,72.62
2022-07-29T16:00:47.808Z,71.75
2022-07-29T16:04:49.951Z,72.16
2022-07-29T16:08:52.031Z,72.89
2022-07-29T16:12:54.073Z,73.79
2022-07-29T16:16:56.819Z,75.07
2022-07-29T16:20:59.269Z,75.73
2022-07-29T16:25:01.500Z,77.60
2022-07-29T16:29:04.593Z,77.00
2022-07-29T16:33:08.489Z,75.08
2022-07-29T16:37:10.683Z,74.25
2022-07-29T16:41:13.390Z,69.39
2022-07-29T16:45:21.241Z,70.95
2022-07-29T16:49:23.609Z,69.09
2022-07-29T16:53:29.871Z,66.45
2022-07-29T16:57:32.566Z,63.83
2022-07-29T17:01:34.586Z,65.50
2022-07-29T17:05:52.432Z,65.30
2022-07-29T17:10:00.582Z,67.15
2022-07-29T17:14:05.361Z,69.56
2022-07-29T17:18:12.242Z,71.35
2022-07-29T17:22:19.317Z,73.23
2022-07-29T17:26:21.768Z,75.82
2022-07-29T17:30:23.817Z,77.09
2022-07-29T17:34:25.850Z,76.61
2022-07-29T17:38:27.900Z,76.87
2022-07-29T17:42:29.939Z,76.03
2022-07-29T17:46:32.290Z,74.61
2022-07-29T17:50:34.467Z,75.63
2022-07-29T17:54:36.796Z,77.39
2022-07-29T17:58:39.419Z,77.77
2022-07-29T18:02:41.490Z,77.81
2022-07-29T18:06:43.535Z,78.63
2022-07-29T18:10:46.485Z,78.63
2022-07-29T18:14:48.490Z,79.04
2022-07-29T18:18:50.522Z,79.32
2022-07-29T18:22:53.008Z,77.56
2022-07-29T18:26:56.361Z,76.19
2022-07-29T18:30:59.773Z,77.21
2022-07-29T18:35:02.774Z,79.65
2022-07-29T18:39:04.847Z,79.86
2022-07-29T18:43:07.066Z,78.89
2022-07-29T18:47:09.062Z,78.67
2022-07-29T18:51:14.080Z,77.92
2022-07-29T18:55:16.104Z,77.78
2022-07-29T18:59:20.161Z,78.79
2022-07-29T19:03:22.204Z,77.90
2022-07-29T19:07:26.708Z,79.43
2022-07-29T19:11:28.864Z,80.60
2022-07-29T19:15:30.882Z,81.43
2022-07-29T19:19:33.182Z,81.18
2022-07-29T19:24:02.474Z,81.89
2022-07-29T19:27:57.330Z,82.91
2022-07-29T19:32:00.433Z,84.84
2022-07-29T19:36:03.557Z,85.01
2022-07-29T19:40:06.909Z,87.56
2022-07-29T19:44:08.977Z,90.51
2022-07-29T19:48:10.986Z,92.04
2022-07-29T19:52:14.141Z,92.13
2022-07-29T19:56:16.399Z,92.85
2022-07-29T20:00:21.049Z,92.46
2022-07-29T20:04:23.244Z,92.77
2022-07-29T20:08:25.661Z,92.69
2022-07-29T20:12:27.801Z,93.16
2022-07-29T20:16:29.891Z,92.35
2022-07-29T20:20:31.966Z,92.10
2022-07-29T20:24:34.225Z,91.26
2022-07-29T20:28:37.055Z,92.26
2022-07-29T20:32:40.263Z,92.38
2022-07-29T20:36:42.572Z,91.96
2022-07-29T20:40:44.701Z,91.67
2022-07-29T20:44:46.888Z,91.74
2022-07-29T20:48:48.975Z,91.40
2022-07-29T20:52:51.816Z,91.71
2022-07-29T20:56:54.029Z,91.05
2022-07-29T21:00:56.390Z,93.11
2022-07-29T21:04:58.414Z,95.49
2022-07-29T21:09:01.097Z,96.58
2022-07-29T21:13:03.187Z,97.00
2022-07-29T21:17:07.136Z,98.07
2022-07-29T21:21:09.393Z,99.17
2022-07-29T21:25:12.003Z,100.00
2022-07-29T21:29:14.025Z,100.00
2022-07-29T21:33:16.076Z,100.00
2022-07-29T21:37:18.160Z,100.00
2022-07-29T21:41:21.805Z,100.00
2022-07-29T21:45:23.859Z,100.00
2022-07-29T21:49:25.967Z,100.00
2022-07-29T21:53:28.273Z,100.00
2022-07-29T21:57:30.292Z,100.00
2022-07-29T22:01:39.127Z,100.00
2022-07-29T22:05:41.646Z,100.00
2022-07-29T22:09:43.663Z,100.00
2022-07-29T22:13:45.739Z,100.00
2022-07-29T22:17:47.879Z,100.00
2022-07-29T22:21:49.915Z,100.00
2022-07-29T22:25:53.981Z,100.00
2022-07-29T22:29:56.010Z,100.00
2022-07-29T22:33:58.120Z,100.00
2022-07-29T22:38:00.168Z,100.00
2022-07-29T22:42:02.208Z,100.00
2022-07-29T22:46:04.291Z,100.00
2022-07-29T22:50:06.729Z,100.00
2022-07-29T22:54:08.839Z,100.00
2022-07-29T22:58:10.967Z,100.00
2022-07-29T23:02:13.156Z,100.00
2022-07-29T23:06:15.288Z,100.00
2022-07-29T23:10:17.493Z,100.00
2022-07-29T23:14:19.539Z,100.00
2022-07-29T23:18:21.616Z,100.00
2022-07-29T23:22:23.718Z,100.00
2022-07-29T23:26:25.789Z,100.00
2022-07-29T23:30:28.513Z,100.00
2022-07-29T23:34:30.589Z,100.00
2022-07-29T23:38:32.783Z,100.00
2022-07-29T23:42:34.885Z,100.00
2022-07-29T23:46:37.008Z,100.00
2022-07-29T23:50:39.128Z,100.00
2022-07-29T23:54:41.285Z,100.00
2022-07-29T23:58:43.324Z,100.00
